sensor_id;sensor_type;location;lat;lon;timestamp;pressure;altitude;pressure_sealevel;temperature;humidity
42671;BME280;28283;55.426;37.756;2023-01-25T00:06:35;100919.25;;;-2.72;85.76
42671;BME280;28283;55.426;37.756;2023-01-25T00:11:36;100951.44;;;-2.32;84.68
42671;BME280;28283;55.426;37.756;2023-01-25T00:16:38;100883.50;;;-2.94;85.72
42671;BME280;28283;55.426;37.756;2023-01-25T00:21:39;100934.19;;;-2.55;85.89
42671;BME280;28283;55.426;37.756;2023-01-25T00:26:40;100942.16;;;-2.39;85.62
42671;BME280;28283;55.426;37.756;2023-01-25T00:32:31;100879.69;;;-2.71;86.05
42671;BME280;28283;55.426;37.756;2023-01-25T00:37:36;100868.69;;;-2.79;86.49
42671;BME280;28283;55.426;37.756;2023-01-25T00:42:38;100866.59;;;-2.90;86.28
42671;BME280;28283;55.426;37.756;2023-01-25T00:47:39;100929.00;;;-2.39;86.58
42671;BME280;28283;55.426;37.756;2023-01-25T00:52:39;100817.16;;;-3.00;85.38
42671;BME280;28283;55.426;37.756;2023-01-25T00:57:40;100922.03;;;-2.40;86.28
42671;BME280;28283;55.426;37.756;2023-01-25T01:02:41;100850.69;;;-2.86;86.52
42671;BME280;28283;55.426;37.756;2023-01-25T01:07:41;100895.28;;;-2.33;85.59
42671;BME280;28283;55.426;37.756;2023-01-25T01:12:43;100906.69;;;-2.50;86.34
42671;BME280;28283;55.426;37.756;2023-01-25T01:17:43;100908.25;;;-2.45;86.54
42671;BME280;28283;55.426;37.756;2023-01-25T01:22:44;100798.19;;;-3.07;86.82
42671;BME280;28283;55.426;37.756;2023-01-25T01:27:45;100892.13;;;-2.39;86.76
42671;BME280;28283;55.426;37.756;2023-01-25T01:32:45;100863.56;;;-2.64;87.03
42671;BME280;28283;55.426;37.756;2023-01-25T01:37:46;100853.38;;;-2.71;87.07
42671;BME280;28283;55.426;37.756;2023-01-25T01:48:03;100739.50;;;-3.25;86.70
42671;BME280;28283;55.426;37.756;2023-01-25T01:53:05;100863.63;;;-2.48;86.71
42671;BME280;28283;55.426;37.756;2023-01-25T01:58:07;100790.06;;;-2.85;86.67
42671;BME280;28283;55.426;37.756;2023-01-25T02:03:09;100825.41;;;-2.56;86.57
42671;BME280;28283;55.426;37.756;2023-01-25T02:08:12;100791.13;;;-2.72;86.88
42671;BME280;28283;55.426;37.756;2023-01-25T02:13:15;100829.63;;;-2.53;86.57
42671;BME280;28283;55.426;37.756;2023-01-25T02:18:20;100846.47;;;-2.56;86.64
42671;BME280;28283;55.426;37.756;2023-01-25T02:23:42;100828.19;;;-2.59;86.95
42671;BME280;28283;55.426;37.756;2023-01-25T02:28:58;100830.13;;;-2.62;86.96
42671;BME280;28283;55.426;37.756;2023-01-25T02:34:00;100792.38;;;-2.79;86.46
42671;BME280;28283;55.426;37.756;2023-01-25T02:39:08;100843.59;;;-2.51;86.66
42671;BME280;28283;55.426;37.756;2023-01-25T02:44:32;100804.84;;;-3.00;87.04
42671;BME280;28283;55.426;37.756;2023-01-25T02:49:36;100734.78;;;-3.36;87.03
42671;BME280;28283;55.426;37.756;2023-01-25T02:54:37;100808.00;;;-2.76;86.95
42671;BME280;28283;55.426;37.756;2023-01-25T02:59:38;100853.72;;;-2.43;86.16
42671;BME280;28283;55.426;37.756;2023-01-25T03:04:39;100856.66;;;-2.50;86.38
42671;BME280;28283;55.426;37.756;2023-01-25T03:09:39;100849.34;;;-2.27;86.20
42671;BME280;28283;55.426;37.756;2023-01-25T03:14:40;100808.25;;;-2.80;86.64
42671;BME280;28283;55.426;37.756;2023-01-25T03:19:43;100794.56;;;-2.87;87.51
42671;BME280;28283;55.426;37.756;2023-01-25T03:24:44;100851.50;;;-2.51;87.15
42671;BME280;28283;55.426;37.756;2023-01-25T03:29:45;100784.56;;;-2.80;86.97
42671;BME280;28283;55.426;37.756;2023-01-25T03:34:45;100837.44;;;-2.34;86.45
42671;BME280;28283;55.426;37.756;2023-01-25T03:39:46;100820.78;;;-2.68;86.83
42671;BME280;28283;55.426;37.756;2023-01-25T03:44:46;100820.66;;;-2.49;87.39
42671;BME280;28283;55.426;37.756;2023-01-25T03:49:47;100796.53;;;-2.75;87.29
42671;BME280;28283;55.426;37.756;2023-01-25T03:54:48;100831.97;;;-2.47;87.46
42671;BME280;28283;55.426;37.756;2023-01-25T03:59:49;100846.31;;;-2.53;87.67
42671;BME280;28283;55.426;37.756;2023-01-25T04:04:50;100838.69;;;-2.41;87.76
42671;BME280;28283;55.426;37.756;2023-01-25T04:09:54;100803.66;;;-2.59;87.24
42671;BME280;28283;55.426;37.756;2023-01-25T04:14:58;100770.16;;;-2.73;87.13
42671;BME280;28283;55.426;37.756;2023-01-25T04:20:02;100807.78;;;-2.38;86.54
42671;BME280;28283;55.426;37.756;2023-01-25T04:25:03;100819.53;;;-2.12;85.74
42671;BME280;28283;55.426;37.756;2023-01-25T04:30:04;100699.31;;;-2.94;86.33
42671;BME280;28283;55.426;37.756;2023-01-25T04:35:06;100773.47;;;-2.20;85.53
42671;BME280;28283;55.426;37.756;2023-01-25T04:40:07;100805.22;;;-2.39;86.60
42671;BME280;28283;55.426;37.756;2023-01-25T04:45:08;100767.22;;;-2.67;87.46
42671;BME280;28283;55.426;37.756;2023-01-25T04:50:09;100743.00;;;-2.91;87.12
42671;BME280;28283;55.426;37.756;2023-01-25T04:55:10;100761.97;;;-2.84;87.88
42671;BME280;28283;55.426;37.756;2023-01-25T05:00:11;100843.59;;;-2.35;87.63
42671;BME280;28283;55.426;37.756;2023-01-25T05:05:12;100783.72;;;-2.81;88.10
42671;BME280;28283;55.426;37.756;2023-01-25T05:10:13;100795.25;;;-2.83;88.82
42671;BME280;28283;55.426;37.756;2023-01-25T05:15:14;100801.09;;;-2.61;88.02
42671;BME280;28283;55.426;37.756;2023-01-25T05:20:16;100817.16;;;-2.65;88.06
42671;BME280;28283;55.426;37.756;2023-01-25T05:25:17;100850.59;;;-2.34;88.47
42671;BME280;28283;55.426;37.756;2023-01-25T05:30:36;100827.13;;;-2.39;88.04
42671;BME280;28283;55.426;37.756;2023-01-25T05:35:36;100847.03;;;-2.33;88.03
42671;BME280;28283;55.426;37.756;2023-01-25T05:40:37;100778.44;;;-2.81;88.63
42671;BME280;28283;55.426;37.756;2023-01-25T05:45:38;100742.13;;;-3.08;88.83
42671;BME280;28283;55.426;37.756;2023-01-25T05:50:39;100852.88;;;-2.28;88.34
42671;BME280;28283;55.426;37.756;2023-01-25T05:55:40;100778.72;;;-2.70;88.13
42671;BME280;28283;55.426;37.756;2023-01-25T06:00:41;100780.75;;;-2.75;87.84
42671;BME280;28283;55.426;37.756;2023-01-25T06:05:44;100831.75;;;-2.26;87.72
42671;BME280;28283;55.426;37.756;2023-01-25T06:10:45;100802.97;;;-2.63;87.98
